createdAt,value
2019-05-01T00:01:33.064Z,20.90
2019-05-01T00:04:14.592Z,21.13
2019-05-01T00:06:50.314Z,21.10
2019-05-01T00:09:17.849Z,20.53
2019-05-01T00:11:45.201Z,20.67
2019-05-01T00:14:12.601Z,21.60
2019-05-01T00:16:40.613Z,20.83
2019-05-01T00:19:07.579Z,20.70
2019-05-01T00:21:34.520Z,21.60
2019-05-01T00:24:01.607Z,22.63
2019-05-01T00:26:29.168Z,19.50
2019-05-01T00:28:56.380Z,21.10
2019-05-01T00:31:23.550Z,21.23
2019-05-01T00:33:50.569Z,21.43
2019-05-01T00:36:17.833Z,21.37
2019-05-01T00:38:44.789Z,21.17
2019-05-01T00:41:12.162Z,21.33
2019-05-01T00:43:39.496Z,21.70
2019-05-01T00:46:06.630Z,22.90
2019-05-01T00:48:33.643Z,21.63
2019-05-01T00:51:00.712Z,21.90
2019-05-01T00:53:27.991Z,22.43
2019-05-01T00:55:56.882Z,22.70
2019-05-01T00:58:31.577Z,22.47
2019-05-01T01:01:18.022Z,22.97
2019-05-01T01:03:45.390Z,23.37
2019-05-01T01:06:13.263Z,23.40
2019-05-01T01:08:40.547Z,23.70
2019-05-01T01:11:07.964Z,24.70
2019-05-01T01:13:35.008Z,23.33
2019-05-01T01:16:02.586Z,23.20
2019-05-01T01:18:29.649Z,23.77
2019-05-01T01:20:56.591Z,24.33
2019-05-01T01:23:25.050Z,24.40
2019-05-01T01:25:53.118Z,24.23
2019-05-01T01:28:21.424Z,24.33
2019-05-01T01:30:56.025Z,25.33
2019-05-01T01:33:18.353Z,24.73
2019-05-01T01:35:45.650Z,26.20
2019-05-01T01:38:13.420Z,26.30
2019-05-01T01:40:41.187Z,24.20
2019-05-01T01:43:27.449Z,24.93
2019-05-01T01:46:02.886Z,25.03
2019-05-01T01:48:30.472Z,23.43
2019-05-01T01:50:58.035Z,25.27
2019-05-01T01:53:25.415Z,25.83
2019-05-01T01:55:53.624Z,24.67
2019-05-01T01:58:22.282Z,25.30
2019-05-01T02:03:28.822Z,24.93
2019-05-01T02:06:00.038Z,25.87
2019-05-01T02:08:28.020Z,26.53
2019-05-01T02:10:57.315Z,26.10
2019-05-01T02:13:25.007Z,26.47
2019-05-01T02:15:52.140Z,25.70
2019-05-01T02:18:19.261Z,26.43
2019-05-01T02:20:46.457Z,27.17
2019-05-01T02:23:13.766Z,27.23
2019-05-01T02:25:43.007Z,27.23
2019-05-01T02:28:29.359Z,28.57
2019-05-01T02:31:26.996Z,30.63
2019-05-01T02:33:46.322Z,28.87
2019-05-01T02:36:15.625Z,31.33
2019-05-01T02:38:46.170Z,30.73
2019-05-01T02:41:15.955Z,31.90
2019-05-01T02:43:48.334Z,32.17
2019-05-01T02:46:18.005Z,31.10
2019-05-01T02:49:14.961Z,30.23
2019-05-01T02:51:43.262Z,31.43
2019-05-01T02:54:14.399Z,32.33
2019-05-01T02:56:45.997Z,33.30
2019-05-01T02:59:14.445Z,32.80
2019-05-01T03:01:47.286Z,32.00
2019-05-01T03:04:11.327Z,33.53
2019-05-01T03:06:39.798Z,32.30
2019-05-01T03:09:07.741Z,30.97
2019-05-01T03:11:39.543Z,31.80
2019-05-01T03:14:13.871Z,32.15
2019-05-01T04:38:32.900Z,27.20
2019-05-01T09:01:16.292Z,17.27
2019-05-01T09:03:45.051Z,16.43
2019-05-01T09:06:14.052Z,15.67
2019-05-01T09:08:42.795Z,16.47
2019-05-01T09:11:11.804Z,17.67
2019-05-01T09:16:08.925Z,17.50
2019-05-01T09:18:39.762Z,18.25
2019-05-01T09:21:09.271Z,19.57
2019-05-01T09:23:39.667Z,16.50
2019-05-01T09:26:30.685Z,20.87
2019-05-01T09:29:03.937Z,19.75
2019-05-01T09:31:35.520Z,16.67
2019-05-01T09:34:05.238Z,15.60
2019-05-01T09:36:34.073Z,15.53
2019-05-01T09:39:05.241Z,16.87
2019-05-01T09:41:38.562Z,16.90
2019-05-01T09:44:12.014Z,16.30
2019-05-01T09:46:39.433Z,17.17
2019-05-01T09:49:08.832Z,16.73
2019-05-01T09:51:59.793Z,18.33
2019-05-01T09:54:35.848Z,18.27
2019-05-01T09:57:04.920Z,16.67
2019-05-01T09:59:33.670Z,17.60
2019-05-01T10:09:19.663Z,16.33
2019-05-01T10:12:15.031Z,17.33
2019-05-01T10:14:47.732Z,17.73
2019-05-01T10:17:16.764Z,20.12
2019-05-01T10:19:45.948Z,17.90
2019-05-01T10:22:15.179Z,17.27
2019-05-01T10:24:44.752Z,15.77
2019-05-01T10:27:17.239Z,14.50
2019-05-01T10:30:05.142Z,15.53
2019-05-01T10:32:41.095Z,16.20
2019-05-01T10:35:43.032Z,15.20
2019-05-01T10:38:11.654Z,14.50
2019-05-01T10:40:40.407Z,15.83
2019-05-01T10:43:09.344Z,14.80
2019-05-01T10:45:38.610Z,16.13
2019-05-01T10:48:07.430Z,16.10
2019-05-01T10:50:36.161Z,15.60
2019-05-01T10:53:04.954Z,14.40
2019-05-01T10:55:33.995Z,13.73
2019-05-01T10:58:05.414Z,13.97
2019-05-01T11:00:36.547Z,16.57
2019-05-01T11:03:09.129Z,12.63
2019-05-01T11:05:39.716Z,12.93
2019-05-01T11:08:10.940Z,14.10
2019-05-01T11:10:41.283Z,12.93
2019-05-01T11:13:10.127Z,13.27
2019-05-01T11:15:40.316Z,14.20
2019-05-01T11:18:09.679Z,13.30
2019-05-01T11:20:39.425Z,13.30
2019-05-01T11:23:08.437Z,13.37
2019-05-01T11:25:38.554Z,12.97
2019-05-01T11:28:08.544Z,12.40
2019-05-01T11:30:37.816Z,10.90
2019-05-01T11:33:12.975Z,10.40
2019-05-01T11:36:13.437Z,10.83
2019-05-01T11:41:47.253Z,11.03
2019-05-01T11:44:16.015Z,8.60
2019-05-01T11:46:44.699Z,8.50
2019-05-01T11:49:15.808Z,7.90
2019-05-01T11:51:45.114Z,9.27
2019-05-01T11:54:21.263Z,8.03
2019-05-01T11:57:06.420Z,9.00
2019-05-01T12:01:04.059Z,8.60
2019-05-01T12:03:36.182Z,8.33
2019-05-01T12:06:05.454Z,9.40
2019-05-01T12:08:34.536Z,8.10
2019-05-01T12:11:04.822Z,8.17
2019-05-01T12:13:43.618Z,7.57
2019-05-01T12:16:15.210Z,8.00
2019-05-01T12:18:46.226Z,7.30
2019-05-01T12:21:14.953Z,8.13
2019-05-01T12:23:43.998Z,7.40
2019-05-01T12:26:12.991Z,7.87
2019-05-01T12:28:41.758Z,7.00
2019-05-01T12:31:11.346Z,7.53
2019-05-01T12:33:40.562Z,8.33
2019-05-01T12:36:09.865Z,7.50
2019-05-01T12:38:38.595Z,7.03
2019-05-01T12:41:25.464Z,7.33
2019-05-01T12:43:55.363Z,7.47
2019-05-01T12:46:45.910Z,6.87
2019-05-01T12:49:15.896Z,6.03
2019-05-01T12:51:48.704Z,5.90
2019-05-01T12:54:34.031Z,6.27
2019-05-01T12:57:02.609Z,6.17
2019-05-01T12:59:31.295Z,6.10
2019-05-01T13:01:59.958Z,5.67
2019-05-01T13:04:31.429Z,6.20
2019-05-01T13:07:03.013Z,6.47
2019-05-01T13:09:31.606Z,6.00
2019-05-01T13:12:00.098Z,6.17
2019-05-01T13:14:28.751Z,5.73
2019-05-01T13:16:57.676Z,6.50
2019-05-01T13:19:28.137Z,6.33
2019-05-01T13:22:06.670Z,6.10
2019-05-01T13:24:39.518Z,6.17
2019-05-01T13:27:19.006Z,6.00
2019-05-01T13:30:00.347Z,7.10
2019-05-01T13:32:46.999Z,6.13
2019-05-01T13:35:16.160Z,7.17
2019-05-01T13:37:45.069Z,6.47
2019-05-01T13:40:15.538Z,6.73
2019-05-01T13:42:44.582Z,6.93
2019-05-01T13:45:15.150Z,6.77
2019-05-01T13:47:44.394Z,7.00
2019-05-01T13:50:16.178Z,7.77
2019-05-01T13:52:44.963Z,7.07
2019-05-01T13:55:15.300Z,7.30
2019-05-01T13:57:44.340Z,7.33
2019-05-01T14:00:13.602Z,7.47
2019-05-01T14:02:44.476Z,8.27
2019-05-01T14:05:13.835Z,8.37
2019-05-01T14:07:42.533Z,7.97
2019-05-01T14:10:11.640Z,7.73
2019-05-01T14:12:40.914Z,7.50
2019-05-01T14:15:10.002Z,8.43
2019-05-01T14:17:39.385Z,7.77
2019-05-01T14:20:31.371Z,9.07
2019-05-01T14:23:22.718Z,8.85
2019-05-01T14:26:04.626Z,8.07
2019-05-01T14:29:23.056Z,9.00
2019-05-01T14:31:51.846Z,8.40
2019-05-01T14:34:21.076Z,8.77
2019-05-01T14:36:50.002Z,8.73
2019-05-01T14:39:19.403Z,10.20
2019-05-01T14:45:24.056Z,9.17
2019-05-01T14:47:52.812Z,9.33
2019-05-01T14:50:21.470Z,9.27
2019-05-01T14:52:50.541Z,9.00
2019-05-01T14:55:19.342Z,8.90
2019-05-01T14:57:48.234Z,10.60
2019-05-01T15:00:20.077Z,9.17
2019-05-01T15:02:49.274Z,9.23
2019-05-01T15:05:18.847Z,9.73
2019-05-01T15:07:48.310Z,9.93
2019-05-01T15:10:17.082Z,10.17
2019-05-01T15:12:49.333Z,9.67
2019-05-01T15:15:40.746Z,9.30
2019-05-01T15:18:36.027Z,9.90
2019-05-01T15:21:04.745Z,10.18
2019-05-01T15:23:33.795Z,9.27
2019-05-01T15:26:02.546Z,10.50
2019-05-01T15:28:31.266Z,10.70
2019-05-01T15:31:00.671Z,9.83
2019-05-01T15:33:29.500Z,10.63
2019-05-01T15:35:58.722Z,10.53
2019-05-01T15:38:27.556Z,11.93
2019-05-01T15:41:12.339Z,11.40
2019-05-01T15:43:59.833Z,10.90
2019-05-01T15:46:29.419Z,12.75
2019-05-01T15:48:58.998Z,12.60
2019-05-01T15:51:28.117Z,11.30
2019-05-01T15:53:57.589Z,13.15
2019-05-01T15:56:26.378Z,10.53
2019-05-01T15:58:55.078Z,11.03
2019-05-01T16:01:24.024Z,11.50
2019-05-01T16:03:53.002Z,12.47
2019-05-01T16:06:22.125Z,11.23
2019-05-01T16:08:51.483Z,11.50
2019-05-01T16:11:51.666Z,11.10
2019-05-01T16:14:21.006Z,12.17
2019-05-01T16:16:50.278Z,13.40
2019-05-01T16:19:19.200Z,12.37
2019-05-01T16:21:48.037Z,11.77
2019-05-01T16:24:19.527Z,11.40
2019-05-01T16:26:48.693Z,13.13
2019-05-01T16:29:17.889Z,12.37
2019-05-01T16:31:46.945Z,12.43
2019-05-01T16:34:15.679Z,12.80
2019-05-01T16:36:44.971Z,14.18
2019-05-01T16:39:42.505Z,13.50
2019-05-01T16:42:11.274Z,15.98
2019-05-01T16:44:39.957Z,15.65
2019-05-01T16:47:09.106Z,13.73
2019-05-01T16:49:38.294Z,13.43
2019-05-01T16:52:07.247Z,13.33
2019-05-01T16:54:35.966Z,12.77
2019-05-01T16:57:06.693Z,13.60
2019-05-01T16:59:35.883Z,14.67
2019-05-01T17:02:19.060Z,14.43
2019-05-01T17:04:59.649Z,14.13
2019-05-01T17:07:50.783Z,14.30
2019-05-01T17:10:24.819Z,14.73
2019-05-01T17:12:54.313Z,17.82
2019-05-01T17:15:30.297Z,17.90
2019-05-01T17:17:59.417Z,15.50
2019-05-01T17:20:28.753Z,13.43
2019-05-01T17:22:58.286Z,13.83
2019-05-01T17:25:29.419Z,14.37
2019-05-01T17:27:57.888Z,14.50
2019-05-01T17:31:04.813Z,14.87
2019-05-01T17:33:35.973Z,14.03
2019-05-01T17:36:05.198Z,14.43
2019-05-01T17:38:34.352Z,13.83
2019-05-01T17:41:03.918Z,13.37
2019-05-01T17:43:32.782Z,15.48
2019-05-01T17:46:01.478Z,14.50
2019-05-01T17:48:33.659Z,13.73
2019-05-01T17:51:01.977Z,13.70
2019-05-01T17:53:30.997Z,13.23
2019-05-01T17:56:00.096Z,13.50
2019-05-01T17:58:32.093Z,14.50
2019-05-01T18:01:27.599Z,14.33
2019-05-01T18:04:22.578Z,16.95
2019-05-01T18:06:52.146Z,14.60
2019-05-01T18:09:21.577Z,14.67
2019-05-01T18:11:52.161Z,14.37
2019-05-01T18:14:24.724Z,14.33
2019-05-01T18:16:54.474Z,15.00
2019-05-01T18:19:23.395Z,14.07
2019-05-01T18:22:08.289Z,15.20
2019-05-01T18:24:59.681Z,13.83
2019-05-01T18:27:49.870Z,13.63
2019-05-01T18:30:20.472Z,13.57
2019-05-01T18:32:52.575Z,14.40
2019-05-01T18:35:20.731Z,16.80
2019-05-01T18:38:16.758Z,13.70
2019-05-01T18:40:49.806Z,15.00
2019-05-01T18:43:18.797Z,14.10
2019-05-01T18:45:54.008Z,14.13
2019-05-01T18:48:24.270Z,14.17
2019-05-01T18:50:54.913Z,15.50
2019-05-01T18:53:24.428Z,14.33
2019-05-01T18:55:53.094Z,16.80
2019-05-01T18:58:22.052Z,15.33
2019-05-01T19:00:51.327Z,14.23
2019-05-01T19:03:22.598Z,14.77
2019-05-01T19:05:51.221Z,16.63
2019-05-01T19:08:20.607Z,15.40
2019-05-01T19:10:49.482Z,16.27
2019-05-01T19:13:18.801Z,17.53
2019-05-01T19:15:47.657Z,17.43
2019-05-01T19:18:16.626Z,16.07
2019-05-01T19:20:58.887Z,16.63
2019-05-01T19:23:22.240Z,16.97
2019-05-01T19:25:48.202Z,17.00
2019-05-01T19:28:17.761Z,17.37
2019-05-01T19:30:46.789Z,15.53
2019-05-01T19:33:15.461Z,15.43
2019-05-01T19:35:44.990Z,15.60
2019-05-01T19:38:16.158Z,15.10
2019-05-01T19:40:45.085Z,15.63
2019-05-01T19:43:16.621Z,15.27
2019-05-01T19:45:45.274Z,15.57
2019-05-01T19:48:14.505Z,16.20
2019-05-01T19:50:48.051Z,15.53
2019-05-01T19:53:14.741Z,15.63
2019-05-01T19:55:46.508Z,16.17
2019-05-01T19:58:15.542Z,16.17
2019-05-01T20:01:04.391Z,15.43
2019-05-01T20:03:36.233Z,16.20
2019-05-01T20:06:06.100Z,16.23
2019-05-01T20:08:35.875Z,18.33
2019-05-01T20:11:04.537Z,16.53
2019-05-01T20:13:33.375Z,17.62
2019-05-01T20:16:02.607Z,16.03
2019-05-01T20:18:31.307Z,15.77
2019-05-01T20:21:00.343Z,17.87
2019-05-01T20:23:31.442Z,17.57
2019-05-01T20:25:59.513Z,15.27
2019-05-01T20:28:28.517Z,15.00
2019-05-01T20:30:57.059Z,15.90
2019-05-01T20:33:25.742Z,15.77
2019-05-01T20:35:54.499Z,14.83
2019-05-01T20:38:24.567Z,15.90
2019-05-01T20:40:53.775Z,15.20
2019-05-01T20:43:22.455Z,14.20
2019-05-01T20:45:51.753Z,14.67
2019-05-01T20:48:23.656Z,16.17
2019-05-01T20:50:51.942Z,14.57
2019-05-01T20:53:21.090Z,13.83
2019-05-01T20:56:08.133Z,12.60
2019-05-01T20:58:36.986Z,12.67
2019-05-01T21:01:05.747Z,12.07
2019-05-01T21:03:36.478Z,11.83
2019-05-01T21:06:23.484Z,11.67
2019-05-01T21:09:13.889Z,11.97
2019-05-01T21:11:47.444Z,12.67
2019-05-01T21:14:21.703Z,11.97
2019-05-01T21:16:46.987Z,11.60
2019-05-01T21:19:16.427Z,11.93
2019-05-01T21:21:45.046Z,11.60
2019-05-01T21:24:16.924Z,11.70
2019-05-01T21:26:49.626Z,11.93
2019-05-01T21:29:19.306Z,11.30
2019-05-01T21:31:47.964Z,11.47
2019-05-01T21:34:17.417Z,11.87
2019-05-01T21:36:47.743Z,13.20
2019-05-01T21:39:19.654Z,13.30
2019-05-01T21:41:48.300Z,12.33
2019-05-01T21:44:16.870Z,11.20
2019-05-01T21:46:45.446Z,11.17
2019-05-01T21:49:14.490Z,10.30
2019-05-01T21:51:46.028Z,11.97
2019-05-01T21:54:16.072Z,11.20
2019-05-01T21:56:44.506Z,11.57
2019-05-01T21:59:15.021Z,12.07
2019-05-01T22:01:43.743Z,11.53
2019-05-01T22:04:12.383Z,12.43
2019-05-01T22:06:41.366Z,12.13
2019-05-01T22:09:16.490Z,12.17
2019-05-01T22:11:46.019Z,12.17
2019-05-01T22:14:23.710Z,13.75
2019-05-01T22:16:56.603Z,12.27
2019-05-01T22:19:27.024Z,12.33
2019-05-01T22:22:19.586Z,12.47
2019-05-01T22:24:56.254Z,12.10
2019-05-01T22:27:31.944Z,11.90
2019-05-01T22:30:12.757Z,13.17
2019-05-01T22:32:45.832Z,15.53
2019-05-01T23:32:51.432Z,20.07
2019-05-01T23:42:52.439Z,19.67
